This is the latest recevied weather packets stored in our database for station/object DO6GZ-WX. If no packets are shown the sender has not sent any weather packets the latest 10 day(s).
| Time | Temp. | Humidity | Pressure | Rain* | Wind** | Luminosity | Snow |
|---|---|---|---|---|---|---|---|
| 1777912006 | 17.22° C | 10% | - | 0 mm | - | - | - |
| 1777911378 | 20° C | 10% | - | 0 mm | - | - | - |
| 1777910751 | 20.56° C | 10% | - | 0 mm | - | - | - |
| 1777910123 | 21.11° C | 91% | 1012.4 hPa | 0 mm | - | - | - |
| 1777909496 | 21.67° C | 80% | 1012.3 hPa | 0 mm | - | - | - |
| 1777908868 | 22.22° C | 82% | 1012.2 hPa | 0 mm | - | - | - |
| 1777908241 | 22.78° C | 74% | 1012.2 hPa | 0 mm | - | - | - |
| 1777907613 | 23.33° C | 67% | 1012.3 hPa | 0 mm | - | - | - |
| 1777906986 | 22.78° C | 65% | 1012.4 hPa | 0 mm | - | - | - |
| 1777906358 | 22.78° C | 79% | 1012.5 hPa | 0 mm | - | - | - |
| 1777905731 | 22.78° C | 78% | 1012.5 hPa | 0 mm | - | - | - |
| 1777905103 | 22.22° C | 79% | 1012.7 hPa | 0 mm | - | - | - |
| 1777904476 | 22.22° C | 74% | 1012.8 hPa | 0 mm | - | - | - |
| 1777903848 | 22.22° C | 73% | 1012.9 hPa | 0 mm | - | - | - |
| 1777903220 | 21.11° C | 80% | 1013 hPa | 0 mm | - | - | - |
| 1777902593 | 22.78° C | 84% | 1013 hPa | 0 mm | - | - | - |
| 1777901965 | 21.67° C | 80% | 1013.1 hPa | 0 mm | - | - | - |
| 1777901338 | 22.22° C | 73% | 1013.1 hPa | 0 mm | - | - | - |
| 1777900712 | 22.78° C | 73% | 1013.2 hPa | 0 mm | - | - | - |
| 1777900083 | 21.11° C | 78% | 1013.3 hPa | 0 mm | - | - | - |
| 1777899456 | 21.67° C | 79% | 1013.3 hPa | 0 mm | - | - | - |
| 1777898828 | 23.33° C | 78% | 1013.3 hPa | 0 mm | - | - | - |
| 1777898200 | 23.89° C | 73% | 1013.4 hPa | 0 mm | - | - | - |
| 1777897573 | 23.33° C | 83% | 1013.5 hPa | 0 mm | - | - | - |
| 1777896945 | 22.22° C | 89% | 1013.6 hPa | 0 mm | - | - | - |
* Rain latest hour (hover to see other rain measurements)
** Current wind speed in m/s (hover to see current wind gust speed)